createdAt,value
2017-08-28T00:00:39.796Z,0
2017-08-28T00:01:47.883Z,0
2017-08-28T00:02:55.973Z,0
2017-08-28T00:04:04.059Z,0
2017-08-28T00:05:12.147Z,0
2017-08-28T00:06:20.234Z,0
2017-08-28T00:07:28.344Z,0
2017-08-28T00:08:36.421Z,0
2017-08-28T00:09:44.509Z,0
2017-08-28T00:10:52.603Z,0
2017-08-28T00:12:00.698Z,0
2017-08-28T00:13:08.793Z,0
2017-08-28T00:14:16.881Z,0
2017-08-28T00:15:24.971Z,0
2017-08-28T00:16:33.059Z,0
2017-08-28T00:17:41.149Z,0
2017-08-28T00:18:49.235Z,0
2017-08-28T00:19:57.323Z,0
2017-08-28T00:21:05.415Z,0
2017-08-28T00:22:13.502Z,0
2017-08-28T00:23:21.586Z,0
2017-08-28T00:24:29.696Z,0
2017-08-28T00:25:37.765Z,0
2017-08-28T00:26:45.853Z,0
2017-08-28T00:27:53.942Z,0
2017-08-28T00:29:02.029Z,0
2017-08-28T00:30:10.123Z,0
2017-08-28T00:31:18.205Z,0
2017-08-28T00:32:26.296Z,0
2017-08-28T00:33:34.383Z,0
2017-08-28T00:34:42.471Z,0
2017-08-28T00:35:50.562Z,0
2017-08-28T00:36:58.649Z,0
2017-08-28T00:38:06.735Z,0
2017-08-28T00:39:14.821Z,0
2017-08-28T00:40:22.911Z,0
2017-08-28T00:41:30.997Z,0
2017-08-28T00:42:39.086Z,0
2017-08-28T00:43:47.173Z,0
2017-08-28T00:44:55.327Z,0
2017-08-28T00:46:03.351Z,0
2017-08-28T00:47:11.459Z,0
2017-08-28T00:48:19.531Z,0
2017-08-28T00:49:27.614Z,0
2017-08-28T00:50:35.708Z,0
2017-08-28T00:51:43.800Z,0
2017-08-28T00:52:51.895Z,0
2017-08-28T00:53:59.983Z,0
2017-08-28T00:55:08.072Z,0
2017-08-28T00:56:16.168Z,0
2017-08-28T00:57:24.257Z,0
2017-08-28T00:58:32.356Z,0
2017-08-28T00:59:40.451Z,0
2017-08-28T01:00:48.532Z,0
2017-08-28T01:01:56.614Z,0
2017-08-28T01:03:04.709Z,0
2017-08-28T01:04:12.798Z,0
2017-08-28T01:05:20.890Z,0
2017-08-28T01:06:28.975Z,0
2017-08-28T01:07:37.061Z,0
2017-08-28T01:08:45.150Z,0
2017-08-28T01:09:53.236Z,0
2017-08-28T01:11:01.326Z,0
2017-08-28T01:12:09.420Z,0
2017-08-28T01:13:17.538Z,0
2017-08-28T01:14:25.686Z,0
2017-08-28T01:15:33.688Z,0
2017-08-28T01:16:41.785Z,0
2017-08-28T01:17:49.868Z,0
2017-08-28T01:18:57.951Z,0
2017-08-28T01:20:06.056Z,0
2017-08-28T01:21:14.132Z,0
2017-08-28T01:22:22.213Z,0
2017-08-28T01:23:30.304Z,0
2017-08-28T01:24:38.390Z,0
2017-08-28T01:25:46.493Z,0
2017-08-28T01:26:54.565Z,0
2017-08-28T01:28:02.656Z,0
2017-08-28T01:29:10.742Z,0
2017-08-28T01:30:18.831Z,0
2017-08-28T01:31:26.919Z,0
2017-08-28T01:32:35.013Z,0
2017-08-28T01:33:43.101Z,0
2017-08-28T01:34:51.189Z,0
2017-08-28T01:35:59.274Z,0
2017-08-28T01:37:07.367Z,0
2017-08-28T01:38:15.456Z,0
2017-08-28T01:39:23.544Z,0
2017-08-28T01:40:31.650Z,0
2017-08-28T01:41:39.737Z,0
2017-08-28T01:42:47.820Z,0
2017-08-28T01:43:55.909Z,0
2017-08-28T01:45:03.999Z,0
2017-08-28T01:46:12.089Z,0
2017-08-28T01:47:20.175Z,0
2017-08-28T01:48:28.261Z,0
2017-08-28T01:49:36.349Z,0
2017-08-28T01:50:44.437Z,0
2017-08-28T01:51:52.532Z,0
2017-08-28T01:53:00.613Z,0
2017-08-28T01:54:08.698Z,0
2017-08-28T01:55:16.790Z,0
2017-08-28T01:56:24.877Z,0
2017-08-28T01:57:32.963Z,0
2017-08-28T01:58:41.052Z,0
2017-08-28T01:59:49.145Z,0
2017-08-28T02:00:57.238Z,0
2017-08-28T02:02:05.328Z,0
2017-08-28T02:03:13.436Z,0
2017-08-28T02:04:21.518Z,0
2017-08-28T02:05:29.610Z,0
2017-08-28T02:06:37.695Z,0
2017-08-28T02:07:45.782Z,0
2017-08-28T02:08:53.871Z,0
2017-08-28T02:10:01.957Z,0
2017-08-28T02:11:10.046Z,0
2017-08-28T02:12:18.138Z,0
2017-08-28T02:13:26.226Z,0
2017-08-28T02:14:34.313Z,0
2017-08-28T02:15:42.402Z,0
2017-08-28T02:16:50.505Z,0
2017-08-28T02:17:58.584Z,0
2017-08-28T02:19:06.788Z,0
2017-08-28T02:20:14.884Z,0
2017-08-28T02:21:22.974Z,0
2017-08-28T02:22:31.062Z,0
2017-08-28T02:23:39.148Z,0
2017-08-28T02:24:47.233Z,0
2017-08-28T02:25:55.324Z,0
2017-08-28T02:27:03.413Z,0
2017-08-28T02:28:11.501Z,0
2017-08-28T02:29:19.592Z,0
2017-08-28T02:30:27.680Z,0
2017-08-28T02:31:35.764Z,0
2017-08-28T02:32:43.855Z,0
2017-08-28T02:33:51.940Z,0
2017-08-28T02:35:00.026Z,0
2017-08-28T02:36:08.113Z,0
2017-08-28T02:37:16.203Z,0
2017-08-28T02:38:24.288Z,0
2017-08-28T02:39:32.396Z,0
2017-08-28T02:40:40.472Z,0
2017-08-28T02:41:48.555Z,0
2017-08-28T02:42:56.642Z,0
2017-08-28T02:44:04.726Z,0
2017-08-28T02:45:12.819Z,0
2017-08-28T02:46:20.906Z,0
2017-08-28T02:47:28.993Z,0
2017-08-28T02:48:37.081Z,0
2017-08-28T02:49:45.168Z,0
2017-08-28T02:50:53.256Z,0
2017-08-28T02:52:01.344Z,0
2017-08-28T02:53:09.435Z,0
2017-08-28T02:54:17.519Z,0
2017-08-28T02:55:25.613Z,0
2017-08-28T02:56:33.698Z,0
2017-08-28T02:57:41.781Z,0
2017-08-28T02:58:49.868Z,0
2017-08-28T02:59:57.975Z,0
2017-08-28T03:01:06.086Z,0
2017-08-28T03:02:14.151Z,0
2017-08-28T03:03:22.240Z,0
2017-08-28T03:04:30.325Z,0
2017-08-28T03:05:38.415Z,0
2017-08-28T03:06:46.504Z,0
2017-08-28T03:07:54.592Z,0
2017-08-28T03:09:02.679Z,0
2017-08-28T03:10:10.765Z,0
2017-08-28T03:11:18.855Z,0
2017-08-28T03:12:26.941Z,0
2017-08-28T03:13:35.029Z,0
2017-08-28T03:14:43.118Z,0
2017-08-28T03:15:51.206Z,0
2017-08-28T03:16:59.294Z,0
2017-08-28T03:18:07.381Z,0
2017-08-28T03:19:15.486Z,0
2017-08-28T03:20:23.556Z,0
2017-08-28T03:21:31.641Z,0
2017-08-28T03:22:39.731Z,0
2017-08-28T03:23:47.820Z,0
2017-08-28T03:24:55.908Z,0
2017-08-28T03:26:03.994Z,0
2017-08-28T03:27:12.085Z,0
2017-08-28T03:28:20.177Z,0
2017-08-28T03:29:28.258Z,0
2017-08-28T03:30:36.346Z,0
2017-08-28T03:31:44.437Z,0
2017-08-28T03:32:52.520Z,0
2017-08-28T03:34:00.644Z,0
2017-08-28T03:35:08.700Z,0
2017-08-28T03:36:16.789Z,0
2017-08-28T03:37:24.880Z,0
2017-08-28T03:38:32.963Z,0
2017-08-28T03:39:41.050Z,0
2017-08-28T03:40:49.138Z,0
2017-08-28T03:41:57.226Z,0
2017-08-28T03:43:05.314Z,0
2017-08-28T03:44:13.407Z,0
2017-08-28T03:45:21.498Z,0
2017-08-28T03:46:29.577Z,0
2017-08-28T03:47:37.670Z,0
2017-08-28T03:48:45.758Z,0
2017-08-28T03:49:53.850Z,0
2017-08-28T03:51:01.987Z,0
2017-08-28T03:52:10.076Z,0
2017-08-28T03:53:18.161Z,0
2017-08-28T03:54:26.250Z,0
2017-08-28T03:55:34.337Z,0
2017-08-28T03:56:42.442Z,0
2017-08-28T03:57:50.512Z,0
2017-08-28T03:58:58.622Z,0
2017-08-28T04:00:06.697Z,0
2017-08-28T04:01:14.792Z,0
2017-08-28T04:02:22.876Z,0
2017-08-28T04:03:30.969Z,0
2017-08-28T04:04:39.052Z,0
2017-08-28T04:05:47.375Z,0
2017-08-28T04:06:55.228Z,0
2017-08-28T04:08:03.621Z,0
2017-08-28T04:09:11.404Z,0
2017-08-28T04:10:19.489Z,0
2017-08-28T04:11:27.578Z,0
2017-08-28T04:12:35.670Z,0
2017-08-28T04:13:43.753Z,0
2017-08-28T04:14:51.839Z,0
2017-08-28T04:15:59.927Z,0
2017-08-28T04:17:08.021Z,0
2017-08-28T04:18:16.503Z,0
2017-08-28T04:19:24.193Z,0
2017-08-28T04:20:32.283Z,0
2017-08-28T04:21:40.370Z,0
2017-08-28T04:22:48.474Z,0
2017-08-28T04:23:56.891Z,0
2017-08-28T04:25:05.045Z,0
2017-08-28T04:26:12.729Z,0
2017-08-28T04:27:20.816Z,0
2017-08-28T04:28:28.904Z,0
2017-08-28T04:29:36.993Z,0
2017-08-28T04:30:45.087Z,0
2017-08-28T04:31:53.175Z,0
2017-08-28T04:33:01.266Z,0
2017-08-28T04:34:09.349Z,0
2017-08-28T04:35:17.610Z,0
2017-08-28T04:36:25.524Z,0
2017-08-28T04:37:33.610Z,0
2017-08-28T04:38:41.709Z,0
2017-08-28T04:39:49.793Z,0
2017-08-28T04:40:57.931Z,0
2017-08-28T04:42:06.020Z,0
2017-08-28T04:43:14.104Z,0
2017-08-28T04:44:22.190Z,0
2017-08-28T04:45:30.276Z,0
2017-08-28T04:46:38.373Z,0
2017-08-28T04:47:46.451Z,0
2017-08-28T04:48:54.540Z,4
2017-08-28T04:50:02.637Z,0
2017-08-28T04:51:10.714Z,0
2017-08-28T04:52:18.810Z,0
2017-08-28T04:53:26.938Z,0
2017-08-28T04:54:34.976Z,0
2017-08-28T04:55:43.065Z,0
2017-08-28T04:56:51.151Z,4
2017-08-28T04:57:59.239Z,4
2017-08-28T04:59:07.329Z,0
2017-08-28T05:00:15.413Z,0
2017-08-28T05:01:23.504Z,0
2017-08-28T05:02:31.743Z,0
2017-08-28T05:03:39.678Z,0
2017-08-28T05:04:47.770Z,4
2017-08-28T05:05:55.851Z,4
2017-08-28T05:07:03.942Z,0
2017-08-28T05:08:12.029Z,0
2017-08-28T05:09:20.116Z,0
2017-08-28T05:10:28.202Z,0
2017-08-28T05:11:36.293Z,4
2017-08-28T05:12:44.384Z,4
2017-08-28T05:13:52.465Z,4
2017-08-28T05:15:00.632Z,4
2017-08-28T05:16:08.641Z,0
2017-08-28T05:17:16.729Z,0
2017-08-28T05:18:24.831Z,0
2017-08-28T05:19:32.919Z,0
2017-08-28T05:20:41.002Z,0
2017-08-28T05:21:49.094Z,4
2017-08-28T05:22:57.175Z,4
2017-08-28T05:24:05.259Z,4
2017-08-28T05:25:13.369Z,0
2017-08-28T05:26:21.439Z,0
2017-08-28T05:27:29.657Z,4
2017-08-28T05:28:37.612Z,4
2017-08-28T05:29:45.702Z,4
2017-08-28T05:30:53.796Z,0
2017-08-28T05:32:01.894Z,4
2017-08-28T05:33:09.981Z,4
2017-08-28T05:34:18.069Z,4
2017-08-28T05:35:26.156Z,4
2017-08-28T05:36:34.245Z,4
2017-08-28T05:37:42.444Z,4
2017-08-28T05:38:50.532Z,4
2017-08-28T05:39:58.616Z,4
2017-08-28T05:41:06.706Z,4
2017-08-28T05:42:14.848Z,4
2017-08-28T05:43:22.884Z,4
2017-08-28T05:44:31.004Z,4
2017-08-28T05:45:39.053Z,4
2017-08-28T05:46:47.142Z,4
2017-08-28T05:47:55.227Z,4
2017-08-28T05:49:03.315Z,4
2017-08-28T05:50:11.404Z,4
2017-08-28T05:51:19.510Z,8
2017-08-28T05:52:27.598Z,4
2017-08-28T05:53:35.685Z,4
2017-08-28T05:54:43.772Z,8
2017-08-28T05:55:51.863Z,4
2017-08-28T05:56:59.948Z,8
2017-08-28T05:58:08.035Z,8
2017-08-28T05:59:16.124Z,4
2017-08-28T06:00:24.213Z,8
2017-08-28T06:01:32.296Z,8
2017-08-28T06:02:40.406Z,8
2017-08-28T06:03:48.485Z,8
2017-08-28T06:04:56.570Z,8
2017-08-28T06:06:04.655Z,8
2017-08-28T06:07:12.912Z,8
2017-08-28T06:08:21.020Z,8
2017-08-28T06:09:29.084Z,8
2017-08-28T06:10:37.170Z,12
2017-08-28T06:11:45.282Z,8
2017-08-28T06:12:53.385Z,8
2017-08-28T06:14:01.457Z,8
2017-08-28T06:15:09.542Z,8
2017-08-28T06:16:17.636Z,8
2017-08-28T06:17:25.720Z,8
2017-08-28T06:18:33.808Z,12
2017-08-28T06:19:41.895Z,8
2017-08-28T06:20:49.984Z,8
2017-08-28T06:21:58.065Z,8
2017-08-28T06:23:06.155Z,8
2017-08-28T06:24:14.243Z,8
2017-08-28T06:25:22.347Z,8
2017-08-28T06:26:30.418Z,8
2017-08-28T06:27:38.512Z,8
2017-08-28T06:28:46.600Z,12
2017-08-28T06:29:54.685Z,8
2017-08-28T06:31:02.775Z,8
2017-08-28T06:32:10.858Z,8
2017-08-28T06:33:18.945Z,8
2017-08-28T06:34:27.034Z,8
2017-08-28T06:35:35.128Z,12
2017-08-28T06:36:43.208Z,12
2017-08-28T06:37:51.299Z,12
2017-08-28T06:38:59.390Z,12
2017-08-28T06:40:07.484Z,12
2017-08-28T06:41:15.569Z,8
2017-08-28T06:42:23.657Z,8
2017-08-28T06:43:31.746Z,12
2017-08-28T06:44:39.831Z,8
2017-08-28T06:45:47.920Z,12
2017-08-28T06:46:56.007Z,8
2017-08-28T06:48:04.098Z,8
2017-08-28T06:49:12.187Z,8
2017-08-28T06:50:20.275Z,8
2017-08-28T06:51:28.416Z,8
2017-08-28T06:52:36.466Z,12
2017-08-28T06:53:44.555Z,12
2017-08-28T06:54:52.642Z,8
2017-08-28T06:56:00.734Z,8
2017-08-28T06:57:08.821Z,12
2017-08-28T06:58:16.912Z,8
2017-08-28T06:59:24.996Z,8
2017-08-28T07:00:33.087Z,12
2017-08-28T07:01:41.182Z,8
2017-08-28T07:02:49.280Z,12
2017-08-28T07:03:57.369Z,12
2017-08-28T07:05:05.456Z,12
2017-08-28T07:06:13.543Z,12
2017-08-28T07:07:21.630Z,12
2017-08-28T07:08:29.722Z,12
2017-08-28T07:09:37.804Z,16
2017-08-28T07:10:45.894Z,20
2017-08-28T07:11:53.985Z,16
2017-08-28T07:13:02.070Z,24
2017-08-28T07:14:10.154Z,28
2017-08-28T07:15:18.245Z,28
2017-08-28T07:16:26.335Z,28
2017-08-28T07:17:34.418Z,32
2017-08-28T07:18:42.505Z,32
2017-08-28T07:19:50.606Z,24
2017-08-28T07:20:58.698Z,24
2017-08-28T07:22:06.785Z,20
2017-08-28T07:23:14.873Z,20
2017-08-28T07:24:22.959Z,16
2017-08-28T07:25:31.052Z,16
2017-08-28T07:26:39.162Z,16
2017-08-28T07:27:47.223Z,16
2017-08-28T07:28:55.311Z,16
2017-08-28T07:30:03.408Z,12
2017-08-28T07:31:11.501Z,12
2017-08-28T07:32:19.596Z,16
2017-08-28T07:33:27.675Z,16
2017-08-28T07:34:35.765Z,16
2017-08-28T07:35:43.858Z,16
2017-08-28T07:36:51.943Z,20
2017-08-28T07:38:00.030Z,16
2017-08-28T07:39:08.121Z,20
2017-08-28T07:40:16.210Z,20
2017-08-28T07:41:24.298Z,20
2017-08-28T07:42:32.390Z,20
2017-08-28T07:43:40.474Z,20
2017-08-28T07:44:48.562Z,20
2017-08-28T07:45:56.647Z,24
2017-08-28T07:47:04.734Z,24
2017-08-28T07:48:12.823Z,24
2017-08-28T07:49:20.912Z,24
2017-08-28T07:50:28.998Z,24
2017-08-28T07:51:37.087Z,24
2017-08-28T07:52:45.175Z,24
2017-08-28T07:53:53.261Z,24
2017-08-28T07:55:01.369Z,24
2017-08-28T07:56:09.436Z,24
2017-08-28T07:57:17.525Z,24
2017-08-28T07:58:25.612Z,24
2017-08-28T07:59:33.697Z,24
2017-08-28T08:00:41.786Z,24
2017-08-28T08:01:49.873Z,24
2017-08-28T08:02:57.960Z,24
2017-08-28T08:04:06.070Z,20
2017-08-28T08:05:14.140Z,24
2017-08-28T08:06:22.223Z,20
2017-08-28T08:07:30.317Z,24
2017-08-28T08:08:38.399Z,24
2017-08-28T08:09:46.486Z,24
2017-08-28T08:10:54.574Z,24
2017-08-28T08:12:02.667Z,24
2017-08-28T08:13:10.772Z,20
2017-08-28T08:14:18.841Z,24
2017-08-28T08:15:26.938Z,24
2017-08-28T08:16:35.037Z,20
2017-08-28T08:17:43.121Z,24
2017-08-28T08:18:51.219Z,24
2017-08-28T08:19:59.296Z,24
2017-08-28T08:21:07.387Z,20
2017-08-28T08:22:15.488Z,20
2017-08-28T08:23:23.557Z,20
2017-08-28T08:24:31.663Z,20
2017-08-28T08:25:39.736Z,20
2017-08-28T08:26:47.822Z,20
2017-08-28T08:27:55.911Z,20
2017-08-28T08:29:04.020Z,20
2017-08-28T08:30:12.109Z,20
2017-08-28T08:31:20.197Z,20
2017-08-28T08:32:28.287Z,20
2017-08-28T08:33:36.374Z,20
2017-08-28T08:34:44.467Z,20
2017-08-28T08:35:52.568Z,20
2017-08-28T08:37:00.638Z,20
2017-08-28T08:38:08.727Z,20
2017-08-28T08:39:16.811Z,20
2017-08-28T08:40:24.902Z,20
2017-08-28T08:41:32.989Z,20
2017-08-28T08:42:41.080Z,20
2017-08-28T08:43:49.168Z,20
2017-08-28T08:44:57.257Z,20
2017-08-28T08:46:05.362Z,20
2017-08-28T08:47:13.522Z,20
2017-08-28T08:48:21.535Z,20
2017-08-28T08:49:29.607Z,20
2017-08-28T08:50:37.697Z,20
2017-08-28T08:51:45.785Z,20
2017-08-28T08:52:53.872Z,20
2017-08-28T08:54:01.961Z,20
2017-08-28T08:55:10.051Z,20
2017-08-28T08:56:18.143Z,20
2017-08-28T08:57:26.228Z,20
2017-08-28T08:58:34.313Z,20
2017-08-28T08:59:42.400Z,20
2017-08-28T09:00:50.490Z,20
2017-08-28T09:01:58.622Z,20
2017-08-28T09:03:06.671Z,20
2017-08-28T09:04:14.757Z,20
2017-08-28T09:05:22.846Z,20
2017-08-28T09:06:30.932Z,20
2017-08-28T09:07:39.021Z,20
2017-08-28T09:08:47.109Z,20
2017-08-28T09:09:55.198Z,20
2017-08-28T09:11:03.286Z,20
2017-08-28T09:12:11.433Z,24
2017-08-28T09:13:19.465Z,20
2017-08-28T09:14:27.570Z,20
2017-08-28T09:15:35.639Z,24
2017-08-28T09:16:43.728Z,20
2017-08-28T09:17:51.820Z,20
2017-08-28T09:18:59.912Z,20
2017-08-28T09:20:07.992Z,20
2017-08-28T09:21:16.084Z,24
2017-08-28T09:22:24.171Z,20
2017-08-28T09:23:32.269Z,20
2017-08-28T09:24:40.365Z,20
2017-08-28T09:25:48.446Z,24
2017-08-28T09:26:56.535Z,24
2017-08-28T09:28:04.623Z,20
2017-08-28T09:29:12.714Z,20
2017-08-28T09:30:20.801Z,20
2017-08-28T09:31:28.890Z,20
2017-08-28T09:32:36.979Z,24
2017-08-28T09:33:45.068Z,20
2017-08-28T09:34:53.158Z,20
2017-08-28T09:36:01.245Z,24
2017-08-28T09:37:09.332Z,20
2017-08-28T09:38:17.426Z,20
2017-08-28T09:39:25.508Z,20
2017-08-28T09:40:33.597Z,24
2017-08-28T09:41:41.688Z,24
2017-08-28T09:42:49.775Z,24
2017-08-28T09:43:57.866Z,24
2017-08-28T09:45:05.953Z,24
2017-08-28T09:46:14.043Z,24
2017-08-28T09:47:22.129Z,24
2017-08-28T09:48:30.218Z,24
2017-08-28T09:49:38.307Z,24
2017-08-28T09:50:46.403Z,24
2017-08-28T09:51:54.504Z,24
2017-08-28T09:53:02.574Z,24
2017-08-28T09:54:10.666Z,24
2017-08-28T09:55:18.877Z,24
2017-08-28T09:56:26.964Z,24
2017-08-28T09:57:35.051Z,28
2017-08-28T09:58:43.140Z,24
2017-08-28T09:59:51.229Z,24
2017-08-28T10:00:59.321Z,24
2017-08-28T10:02:07.409Z,24
2017-08-28T10:03:15.533Z,24
2017-08-28T10:04:23.588Z,24
2017-08-28T10:05:31.677Z,28
2017-08-28T10:06:39.768Z,24
2017-08-28T10:07:47.853Z,24
2017-08-28T10:08:55.940Z,24
2017-08-28T10:10:04.031Z,24
2017-08-28T10:11:12.126Z,24
2017-08-28T10:12:20.209Z,24
2017-08-28T10:13:28.303Z,28
2017-08-28T10:14:36.407Z,24
2017-08-28T10:15:44.472Z,28
2017-08-28T10:16:52.562Z,24
2017-08-28T10:18:00.656Z,24
2017-08-28T10:19:08.744Z,24
2017-08-28T10:20:16.834Z,24
2017-08-28T10:21:24.923Z,24
2017-08-28T10:22:33.014Z,24
2017-08-28T10:23:41.102Z,24
2017-08-28T10:24:49.202Z,28
2017-08-28T10:25:57.288Z,28
2017-08-28T10:27:05.382Z,28
2017-08-28T10:28:13.470Z,24
2017-08-28T10:29:21.558Z,24
2017-08-28T10:30:29.644Z,24
2017-08-28T10:31:37.735Z,24
2017-08-28T10:32:45.825Z,24
2017-08-28T10:33:53.911Z,24
2017-08-28T10:35:02.001Z,28
2017-08-28T10:36:10.090Z,24
2017-08-28T10:37:18.180Z,24
2017-08-28T10:38:26.272Z,24
2017-08-28T10:39:34.373Z,28
2017-08-28T10:40:42.503Z,28
2017-08-28T10:41:50.538Z,24
2017-08-28T10:42:58.625Z,24
2017-08-28T10:44:06.887Z,24
2017-08-28T10:45:14.809Z,24
2017-08-28T10:46:22.891Z,24
2017-08-28T10:47:30.979Z,28
2017-08-28T10:48:39.069Z,28
2017-08-28T10:49:47.159Z,28
2017-08-28T10:50:55.249Z,28
2017-08-28T10:52:03.336Z,28
2017-08-28T10:53:11.425Z,28
2017-08-28T10:54:19.514Z,24
2017-08-28T10:55:27.603Z,24
2017-08-28T10:56:35.697Z,24
2017-08-28T10:57:43.779Z,28
2017-08-28T10:58:51.869Z,28
2017-08-28T10:59:59.962Z,24
2017-08-28T11:01:08.049Z,24
2017-08-28T11:02:16.139Z,24
2017-08-28T11:03:24.226Z,24
2017-08-28T11:04:32.314Z,28
2017-08-28T11:05:40.403Z,24
2017-08-28T11:06:48.500Z,28
2017-08-28T11:07:56.594Z,28
2017-08-28T11:09:04.677Z,24
2017-08-28T11:10:12.767Z,28
2017-08-28T11:11:20.858Z,28
2017-08-28T11:12:28.945Z,24
2017-08-28T11:13:37.035Z,24
2017-08-28T11:14:45.121Z,28
2017-08-28T11:15:53.212Z,24
2017-08-28T11:17:01.309Z,24
2017-08-28T11:18:09.389Z,28
2017-08-28T11:19:17.484Z,28
2017-08-28T11:20:25.569Z,24
2017-08-28T11:21:33.660Z,24
2017-08-28T11:22:41.781Z,24
2017-08-28T11:23:49.973Z,28
2017-08-28T11:24:58.060Z,24
2017-08-28T11:26:06.170Z,24
2017-08-28T11:27:14.242Z,28
2017-08-28T11:28:22.329Z,24
2017-08-28T11:29:30.439Z,24
2017-08-28T11:30:38.516Z,28
2017-08-28T11:31:46.616Z,24
2017-08-28T11:32:54.688Z,24
2017-08-28T11:34:02.775Z,24
2017-08-28T11:35:11.173Z,24
2017-08-28T11:36:19.261Z,24
2017-08-28T11:37:27.350Z,24
2017-08-28T11:38:35.444Z,28
2017-08-28T11:39:43.527Z,24
2017-08-28T11:40:51.622Z,24
2017-08-28T11:41:59.717Z,24
2017-08-28T11:43:07.805Z,24
2017-08-28T11:44:15.894Z,24
2017-08-28T11:45:23.990Z,24
2017-08-28T11:46:32.083Z,24
2017-08-28T11:47:40.171Z,24
2017-08-28T11:48:48.260Z,24
2017-08-28T11:49:56.350Z,24
2017-08-28T11:51:04.450Z,24
2017-08-28T11:52:12.541Z,24
2017-08-28T11:53:20.634Z,24
2017-08-28T11:54:28.730Z,24
2017-08-28T11:55:36.819Z,24
2017-08-28T11:56:44.908Z,24
2017-08-28T11:57:53.002Z,20
2017-08-28T11:59:01.085Z,24
2017-08-28T12:00:09.175Z,24
2017-08-28T12:01:17.263Z,24
2017-08-28T12:02:25.361Z,24
2017-08-28T12:03:33.463Z,20
2017-08-28T12:04:41.538Z,24
2017-08-28T12:05:49.645Z,20
2017-08-28T12:06:57.714Z,24
2017-08-28T12:08:05.821Z,24
2017-08-28T12:09:13.890Z,24
2017-08-28T12:10:21.979Z,24
2017-08-28T12:11:30.074Z,24
2017-08-28T12:12:38.165Z,24
2017-08-28T12:13:46.262Z,16
2017-08-28T12:14:54.347Z,12
2017-08-28T12:16:02.436Z,12
2017-08-28T12:17:10.524Z,16
2017-08-28T12:18:18.644Z,16
2017-08-28T12:19:26.733Z,12
2017-08-28T12:20:34.823Z,16
2017-08-28T12:21:42.910Z,20
2017-08-28T12:22:51.012Z,16
2017-08-28T12:23:59.088Z,16
2017-08-28T12:25:07.178Z,12
2017-08-28T12:26:15.269Z,16
2017-08-28T12:27:23.358Z,12
2017-08-28T12:28:31.450Z,12
2017-08-28T12:29:39.546Z,12
2017-08-28T12:30:47.640Z,8
2017-08-28T12:31:55.725Z,12
2017-08-28T12:33:03.815Z,12
2017-08-28T12:34:11.904Z,8
2017-08-28T12:35:19.994Z,12
2017-08-28T12:36:28.084Z,8
2017-08-28T12:37:36.173Z,12
2017-08-28T12:38:44.263Z,12
2017-08-28T12:39:52.350Z,8
2017-08-28T12:41:00.441Z,8
2017-08-28T12:42:08.537Z,8
2017-08-28T12:43:16.624Z,8
2017-08-28T12:44:24.722Z,8
2017-08-28T12:45:32.798Z,8
2017-08-28T12:46:40.887Z,8
2017-08-28T12:47:48.975Z,8
2017-08-28T12:48:57.066Z,8
2017-08-28T12:50:05.154Z,16
2017-08-28T12:51:13.242Z,12
2017-08-28T12:52:21.342Z,12
2017-08-28T12:53:29.423Z,12
2017-08-28T12:54:37.513Z,4
2017-08-28T12:55:45.607Z,4
2017-08-28T12:56:53.704Z,4
2017-08-28T12:58:01.780Z,8
2017-08-28T12:59:09.871Z,4
2017-08-28T13:00:17.959Z,4
2017-08-28T13:01:26.049Z,4
2017-08-28T13:02:34.156Z,4
2017-08-28T13:03:42.229Z,4
2017-08-28T13:04:50.322Z,4
2017-08-28T13:05:58.410Z,0
2017-08-28T13:07:06.503Z,4
2017-08-28T13:08:14.585Z,0
2017-08-28T13:09:22.677Z,0
2017-08-28T13:10:30.771Z,0
2017-08-28T13:11:38.856Z,4
2017-08-28T13:12:46.952Z,4
2017-08-28T13:13:55.034Z,4
2017-08-28T13:15:05.735Z,4
2017-08-28T13:16:11.209Z,4
2017-08-28T13:17:19.298Z,4
2017-08-28T13:18:27.402Z,4
2017-08-28T13:19:35.479Z,4
2017-08-28T13:20:43.579Z,4
2017-08-28T13:21:51.670Z,4
2017-08-28T13:22:59.755Z,4
2017-08-28T13:24:07.845Z,4
2017-08-28T13:25:15.933Z,0
2017-08-28T13:26:24.023Z,0
2017-08-28T13:27:32.111Z,4
2017-08-28T13:28:40.205Z,4
2017-08-28T13:29:48.292Z,4
2017-08-28T13:30:57.176Z,4
2017-08-28T13:32:04.473Z,4
2017-08-28T13:33:12.566Z,4
2017-08-28T13:36:36.829Z,4
2017-08-28T13:37:44.916Z,4
2017-08-28T13:38:53.016Z,8
2017-08-28T13:41:09.183Z,8
2017-08-28T13:43:25.367Z,8
2017-08-28T13:44:33.487Z,12
2017-08-28T13:45:41.561Z,8
2017-08-28T13:46:49.633Z,8
2017-08-28T13:48:01.378Z,12
2017-08-28T13:49:05.827Z,12
2017-08-28T13:50:13.900Z,16
2017-08-28T13:51:21.990Z,16
2017-08-28T13:52:30.082Z,16
2017-08-28T13:53:38.171Z,16
2017-08-28T13:54:46.262Z,16
2017-08-28T13:55:54.349Z,12
2017-08-28T13:57:02.436Z,16
2017-08-28T13:58:10.525Z,8
2017-08-28T13:59:18.615Z,8
2017-08-28T14:00:26.702Z,8
2017-08-28T14:01:34.794Z,8
2017-08-28T14:02:42.883Z,8
2017-08-28T14:03:50.972Z,8
2017-08-28T14:04:59.061Z,8
2017-08-28T14:06:07.150Z,8
2017-08-28T14:07:15.241Z,8
2017-08-28T14:08:23.363Z,4
2017-08-28T14:09:31.419Z,4
2017-08-28T14:10:39.510Z,8
2017-08-28T14:11:47.646Z,4
2017-08-28T14:12:55.687Z,8
2017-08-28T14:14:03.775Z,4
2017-08-28T14:15:11.865Z,8
2017-08-28T14:16:19.953Z,8
2017-08-28T14:17:28.044Z,4
2017-08-28T14:18:36.145Z,4
2017-08-28T14:19:44.223Z,8
2017-08-28T14:20:52.314Z,8
2017-08-28T14:22:00.404Z,8
2017-08-28T14:23:08.493Z,8
2017-08-28T14:24:16.580Z,8
2017-08-28T14:25:24.673Z,8
2017-08-28T14:26:32.775Z,8
2017-08-28T14:28:50.024Z,8
2017-08-28T14:30:01.405Z,8
2017-08-28T14:31:05.132Z,8
2017-08-28T14:32:44.585Z,12
2017-08-28T14:33:21.309Z,8
2017-08-28T14:34:29.401Z,8
2017-08-28T14:35:37.490Z,8
2017-08-28T14:36:45.584Z,8
2017-08-28T14:37:53.669Z,8
2017-08-28T14:39:01.832Z,8
2017-08-28T14:40:09.847Z,8
2017-08-28T14:41:17.938Z,8
2017-08-28T14:42:26.028Z,8
2017-08-28T14:43:44.701Z,8
2017-08-28T14:44:42.207Z,8
2017-08-28T14:45:50.297Z,8
2017-08-28T14:46:58.384Z,12
2017-08-28T14:48:21.944Z,12
2017-08-28T14:49:14.585Z,12
2017-08-28T14:50:22.654Z,8
2017-08-28T14:51:30.743Z,12
2017-08-28T14:52:38.833Z,12
2017-08-28T14:53:46.920Z,8
2017-08-28T14:54:55.010Z,12
2017-08-28T14:56:03.102Z,12
2017-08-28T14:57:11.188Z,12
2017-08-28T14:58:19.278Z,8
2017-08-28T14:59:27.366Z,12
2017-08-28T15:00:50.929Z,8
2017-08-28T15:01:43.545Z,8
2017-08-28T15:02:51.644Z,12
2017-08-28T15:03:59.733Z,12
2017-08-28T15:05:07.823Z,12
2017-08-28T15:06:15.912Z,8
2017-08-28T15:07:24.011Z,8
2017-08-28T15:08:32.101Z,4
2017-08-28T15:09:40.189Z,8
2017-08-28T15:10:48.278Z,8
2017-08-28T15:11:56.367Z,8
2017-08-28T15:13:04.456Z,4
2017-08-28T15:14:12.558Z,4
2017-08-28T15:15:20.640Z,8
2017-08-28T15:16:28.722Z,4
2017-08-28T15:17:36.812Z,8
2017-08-28T15:18:44.903Z,8
2017-08-28T15:19:53.180Z,8
2017-08-28T15:21:01.199Z,8
2017-08-28T15:22:09.277Z,8
2017-08-28T15:23:17.379Z,8
2017-08-28T15:24:25.462Z,4
2017-08-28T15:25:33.556Z,4
2017-08-28T15:26:41.647Z,4
2017-08-28T15:27:49.731Z,4
2017-08-28T15:28:57.821Z,4
2017-08-28T15:30:05.919Z,8
2017-08-28T15:31:13.997Z,4
2017-08-28T15:32:22.087Z,4
2017-08-28T15:33:30.183Z,4
2017-08-28T15:34:38.263Z,4
2017-08-28T15:35:46.357Z,8
2017-08-28T15:36:54.442Z,4
2017-08-28T15:38:02.531Z,4
2017-08-28T15:39:10.619Z,8
2017-08-28T15:40:18.707Z,8
2017-08-28T15:41:26.816Z,8
2017-08-28T15:42:34.886Z,12
2017-08-28T15:43:42.978Z,12
2017-08-28T15:44:51.068Z,12
2017-08-28T15:45:59.154Z,8
2017-08-28T15:47:07.244Z,8
2017-08-28T15:48:15.393Z,12
2017-08-28T15:49:23.440Z,12
2017-08-28T15:50:31.510Z,12
2017-08-28T15:51:39.599Z,8
2017-08-28T15:52:47.706Z,8
2017-08-28T15:53:55.776Z,12
2017-08-28T15:55:03.866Z,12
2017-08-28T15:56:11.954Z,12
2017-08-28T15:57:20.046Z,12
2017-08-28T15:58:28.133Z,12
2017-08-28T15:59:36.220Z,12
2017-08-28T16:00:44.309Z,12
2017-08-28T16:01:52.397Z,12
2017-08-28T16:03:00.486Z,12
2017-08-28T16:04:08.578Z,12
2017-08-28T16:05:16.677Z,12
2017-08-28T16:06:24.767Z,12
2017-08-28T16:07:32.855Z,8
2017-08-28T16:08:40.945Z,8
2017-08-28T16:09:49.042Z,8
2017-08-28T16:10:57.131Z,8
2017-08-28T16:12:05.226Z,8
2017-08-28T16:13:13.325Z,8
2017-08-28T16:14:21.423Z,4
2017-08-28T16:15:29.494Z,4
2017-08-28T16:16:37.583Z,4
2017-08-28T16:17:45.674Z,4
2017-08-28T16:18:53.763Z,8
2017-08-28T16:20:01.850Z,4
2017-08-28T16:21:09.938Z,4
2017-08-28T16:22:18.030Z,4
2017-08-28T16:23:26.121Z,4
2017-08-28T16:24:34.208Z,8
2017-08-28T16:25:42.297Z,4
2017-08-28T16:26:50.405Z,4
2017-08-28T16:27:58.495Z,4
2017-08-28T16:29:06.563Z,8
2017-08-28T16:30:14.657Z,8
2017-08-28T16:31:22.739Z,4
2017-08-28T16:32:30.832Z,4
2017-08-28T16:33:38.920Z,4
2017-08-28T16:34:47.007Z,4
2017-08-28T16:35:55.096Z,4
2017-08-28T16:37:03.188Z,4
2017-08-28T16:38:11.286Z,4